Historyczne dane pomiarowe

Dodano dane terminowe – wersja testowa.

Dane z okresu 1951-2019

Wersja bazy: 1.34 [2019-03-16, lista zmian], aktualizacja planowana na 2019-04-15

Dane meteo z obszaru Polski uzyskane na podstawie danych udostępnionych przez Instytut Meteorologii i Gospodarki Wodnej – Państwowy Instytut Badawczy.

 

Wybierz Datę:    

       

TemperaturaWilgotnośćWiatrCiśnienieOpadyŚniegCzas trwania zjawisk
 Stacja t tx tn tng RH VA  wxwx mslp ppp RRR   cm mm wxwxwxwxwxwxwx
1999-07-16 5.2 8.9 3.0- 95.3 8.4 7.4 2.1 0.0 0.0- 802.0 0.0 0.0 0.0- 0.0 3.9 1.4-- 16.7---
1999-07-17 5.7 10.3 3.5- 92.3 8.4 5.5 2.8 0.0 0.0- 805.5 0.0 0.0 0.0- 0.0 5.3--- 4.8---
1999-07-18 8.1 12.4 4.0- 74.4 7.9 2.4 2.0 0.0 0.0- 806.3 0.0 0.0 0.0- 0.0 12.7-------
1999-07-19 10.2 14.5 6.6- 67.5 8.4 4.1 2.0 0.0 0.0- 806.2 0.0 0.0 0.0- 0.0 8.4-------
1999-07-20 11.7 17.0 8.0- 74.5 10.3 3.6 1.8 0.0 0.0- 805.0 0.0 0.0 0.0- 0.0 8.9-------
1999-07-21 12.9 17.6 10.0- 67.1 9.9 5.4 5.1 0.0 0.0- 803.7 0.0 0.0 0.0- 0.0 8.9-------
1999-07-22 9.2 12.9 7.2- 79.6 9.2 6.1 5.6 0.0 0.0- 801.1 20.4 0.3 20.1- 0.0 3.2 3.8-- 5.8---
1999-07-23 4.6 8.6 2.9-100.0 8.5 8.0 5.8 0.0 0.0- 798.7 23.4 22.3 1.1- 0.0 0.0 19.8-- 21.5---
1999-07-24 4.5 7.2 1.9- 99.6 8.4 7.6 4.6 0.0 0.0- 804.2 0.0 0.0 0.0- 0.0 0.0 0.1-- 19.2---
1999-07-25 11.0 15.1 5.1- 84.6 11.2 3.6 2.0 0.0 0.0- 806.5 0.0 0.0 0.0- 0.0 9.4--- 11.3---
1999-07-26 11.9 15.8 10.1- 87.6 12.1 5.3 3.3 0.0 0.0- 804.5 9.2 3.0 6.2- 0.0 7.1 4.0-- 10.9 5.0- 7.1
1999-07-27 9.9 11.2 9.1-100.0 12.1 8.0 4.9 0.0 0.0- 804.3 24.1 15.6 8.5- 0.0 0.0 21.2-- 24.0-- 1.2
1999-07-28 8.1 9.2 7.2- 99.4 10.7 7.1 5.6 0.0 0.0- 803.8 3.7 3.7 0.0- 0.0 0.0 11.6-- 22.2---
1999-07-29 5.0 7.9 3.6- 99.5 8.7 7.5 8.0 3.9 0.0- 802.9 0.1 0.1 0.0- 0.0 1.4--- 16.2---
1999-07-30 4.7 6.3 2.6- 99.1 8.5 7.1 7.6 3.2 0.0- 801.8 3.2 1.1 2.1- 0.0 0.1 1.5-- 16.8---
1999-07-31 5.6 8.6 3.5- 90.8 8.2 7.0 6.3 0.0 0.0- 801.8 5.1 0.0 5.1- 0.0 3.3 3.1-- 7.8---
1999-08-01 5.9 8.4 3.9- 93.0 8.6 6.4 5.0 0.0 0.0- 802.8 1.2 1.2 0.0- 0.0 3.0 1.4-- 7.7---
1999-08-02 4.5 5.8 3.5- 93.5 7.8 7.3 5.5 0.0 0.0- 802.4 0.6 0.6 0.0- 0.0 0.2 1.2-- 12.4---
1999-08-03 4.8 6.5 2.3- 93.3 8.0 6.3 4.6 0.0 0.0- 801.6 0.0 0.0 0.0- 0.0 0.8--- 11.7---
1999-08-04 6.6 9.3 3.6- 90.3 8.8 4.0 3.0 0.0 0.0- 802.2 0.5 0.5 0.0- 0.0 3.5 0.5-- 3.6---
1999-08-05 9.3 14.4 5.6- 75.3 8.9 3.8 1.8 0.0 0.0- 803.0 2.2 0.0 2.2- 0.0 8.9 0.3------
1999-08-06 11.0 15.6 7.9- 83.1 10.8 5.9 5.4 0.0 0.0- 801.9 0.0 0.0 0.0- 0.0 6.5 1.2-- 0.8-- 1.4
1999-08-07 12.4 16.6 9.5- 82.8 12.0 6.1 3.3 0.0 0.0- 799.7 0.8 0.0 0.8- 0.0 4.9 0.1-- 6.0-- 2.5
1999-08-08 12.6 16.6 9.5- 78.1 11.3 4.6 4.6 0.0 0.0- 796.6 0.0 0.0 0.0- 0.0 9.8 1.7-- 1.5-- 1.0
1999-08-09 14.9 18.6 10.5- 64.6 10.9 3.0 4.0 0.0 0.0- 799.8 0.0 0.0 0.0- 0.0 9.2 0.4-- 2.1-- 1.7
1999-08-10 14.2 17.2 12.0- 79.3 12.7 6.8 4.8 0.0 0.0- 800.6 8.9 0.5 8.4- 0.0 5.5 3.0-- 5.2-- 6.7
1999-08-11 8.9 13.2 7.1- 92.8 10.5 5.5 2.9 0.0 0.0- 801.1 2.3 0.0 2.3- 0.0 6.6 1.0-- 11.3-- 1.6
1999-08-12 6.1 9.2 5.1-100.0 9.4 8.0 2.8 0.0 0.0- 800.6 0.5 0.4 0.1- 0.0 0.8 14.1-- 24.0---
1999-08-13 4.3 6.0 2.6-100.0 8.3 8.0 3.6 0.0 0.0- 798.0 0.0 0.0 0.0- 0.0 0.0 0.3-- 24.0---
1999-08-14 3.7 7.5 0.1- 89.0 7.0 5.6 3.0 0.0 0.0- 797.3 0.0 0.0 0.0- 0.0 5.4--- 6.5---
146.2 ms

 

Źródłem pochodzenia danych jest Instytut Meteorologii i Gospodarki Wodnej – Państwowy Instytut Badawczy. Dane Instytutu Meteorologii i Gospodarki Wodnej – Państwowego Instytutu Badawczego zostały przetworzone.

Dane źródłowe można odnaleźć na stronie https://dane.imgw.pl